sensor_id;sensor_type;location;lat;lon;timestamp;P1;P2;P0
62981;PMS5003;49075;53.988;27.678;2023-03-31T00:01:12;39.4;38.4;28
62981;PMS5003;49075;53.988;27.678;2023-03-31T00:05:59;41.5;39;29
62981;PMS5003;49075;53.988;27.678;2023-03-31T00:11:06;37.8;36.2;27.2
62981;PMS5003;49075;53.988;27.678;2023-03-31T00:15:59;40.2;39.2;28.6
62981;PMS5003;49075;53.988;27.678;2023-03-31T00:21:12;40.2;37.8;28
62981;PMS5003;49075;53.988;27.678;2023-03-31T00:25:58;43.4;40;28.8
62981;PMS5003;49075;53.988;27.678;2023-03-31T00:30:59;37.2;35;27.4
62981;PMS5003;49075;53.988;27.678;2023-03-31T00:36:12;39.4;38.2;27.4
62981;PMS5003;49075;53.988;27.678;2023-03-31T00:41:18;37;36.4;28
62981;PMS5003;49075;53.988;27.678;2023-03-31T00:46:00;37.8;36.8;27.4
62981;PMS5003;49075;53.988;27.678;2023-03-31T00:51:34;41.6;38.8;29.2
62981;PMS5003;49075;53.988;27.678;2023-03-31T00:56:12;47.6;42.8;32.4
62981;PMS5003;49075;53.988;27.678;2023-03-31T01:01:01;42.6;38.6;28.6
62981;PMS5003;49075;53.988;27.678;2023-03-31T01:06:18;53.3;45.8;34.3
62981;PMS5003;49075;53.988;27.678;2023-03-31T01:11:13;40.2;38.4;29.6
62981;PMS5003;49075;53.988;27.678;2023-03-31T01:16:20;45.4;42;33.2
62981;PMS5003;49075;53.988;27.678;2023-03-31T01:26:04;55;48;35
62981;PMS5003;49075;53.988;27.678;2023-03-31T01:32:06;56.6;48.6;37
62981;PMS5003;49075;53.988;27.678;2023-03-31T01:36:20;50.8;45.2;34.8
62981;PMS5003;49075;53.988;27.678;2023-03-31T01:41:29;47.8;43.6;34.2
62981;PMS5003;49075;53.988;27.678;2023-03-31T01:45:59;53.2;46.4;35.4
62981;PMS5003;49075;53.988;27.678;2023-03-31T01:50:58;52.8;47.2;36.4
62981;PMS5003;49075;53.988;27.678;2023-03-31T01:55:59;53.2;46.4;35.8
62981;PMS5003;49075;53.988;27.678;2023-03-31T02:00:59;55.2;48;36.8
62981;PMS5003;49075;53.988;27.678;2023-03-31T02:06:26;53.8;47.3;36
62981;PMS5003;49075;53.988;27.678;2023-03-31T02:11:14;53.6;47.2;35
62981;PMS5003;49075;53.988;27.678;2023-03-31T02:16:12;56.8;49;37
62981;PMS5003;49075;53.988;27.678;2023-03-31T02:21:20;57.8;49.6;37.4
62981;PMS5003;49075;53.988;27.678;2023-03-31T02:25:59;53.6;46;34.8
62981;PMS5003;49075;53.988;27.678;2023-03-31T02:31:02;38;36.6;28.6
62981;PMS5003;49075;53.988;27.678;2023-03-31T02:35:58;36;34.4;26.6
62981;PMS5003;49075;53.988;27.678;2023-03-31T02:41:12;39.4;38;29.2
62981;PMS5003;49075;53.988;27.678;2023-03-31T02:46:12;35.2;34.6;26
62981;PMS5003;49075;53.988;27.678;2023-03-31T02:51:19;50;44.6;34
62981;PMS5003;49075;53.988;27.678;2023-03-31T02:56:38;44.4;40.8;30.8
62981;PMS5003;49075;53.988;27.678;2023-03-31T03:01:02;36.8;34.8;27
62981;PMS5003;49075;53.988;27.678;2023-03-31T03:06:17;44;41.4;31.4
62981;PMS5003;49075;53.988;27.678;2023-03-31T03:11:30;42.8;38.3;28.5
62981;PMS5003;49075;53.988;27.678;2023-03-31T03:16:16;36.6;35.4;25.8
62981;PMS5003;49075;53.988;27.678;2023-03-31T03:20:58;35.8;34.8;27
62981;PMS5003;49075;53.988;27.678;2023-03-31T03:26:12;37.2;35.4;26.2
62981;PMS5003;49075;53.988;27.678;2023-03-31T03:31:10;32.4;31.6;24.2
62981;PMS5003;49075;53.988;27.678;2023-03-31T03:36:06;39;36.4;28
62981;PMS5003;49075;53.988;27.678;2023-03-31T03:41:12;37.8;36.6;28
62981;PMS5003;49075;53.988;27.678;2023-03-31T03:46:26;42.8;40;29.6
62981;PMS5003;49075;53.988;27.678;2023-03-31T03:51:06;39.2;37.8;28.2
62981;PMS5003;49075;53.988;27.678;2023-03-31T03:56:12;45.8;41.6;31.4
62981;PMS5003;49075;53.988;27.678;2023-03-31T04:00:58;43;40.2;29.8
62981;PMS5003;49075;53.988;27.678;2023-03-31T04:06:12;49.4;43.4;33
62981;PMS5003;49075;53.988;27.678;2023-03-31T04:11:26;35.3;34.3;26
62981;PMS5003;49075;53.988;27.678;2023-03-31T04:16:06;48.8;43.8;33.2
62981;PMS5003;49075;53.988;27.678;2023-03-31T04:20:58;53.4;47;35.6
62981;PMS5003;49075;53.988;27.678;2023-03-31T04:25:58;64.4;54.6;41.6
62981;PMS5003;49075;53.988;27.678;2023-03-31T04:30:58;63.8;54.2;41.4
62981;PMS5003;49075;53.988;27.678;2023-03-31T04:36:26;61;51;39
62981;PMS5003;49075;53.988;27.678;2023-03-31T04:41:06;65;55.6;41.4
62981;PMS5003;49075;53.988;27.678;2023-03-31T04:46:12;64.2;54.4;41.8
62981;PMS5003;49075;53.988;27.678;2023-03-31T04:50:58;62.4;53;40.6
62981;PMS5003;49075;53.988;27.678;2023-03-31T04:55:58;64.8;54.6;41.4
62981;PMS5003;49075;53.988;27.678;2023-03-31T05:01:12;61.8;52.8;40.6
62981;PMS5003;49075;53.988;27.678;2023-03-31T05:06:06;59.8;50.4;38.8
62981;PMS5003;49075;53.988;27.678;2023-03-31T05:10:58;60.3;51.8;38.8
62981;PMS5003;49075;53.988;27.678;2023-03-31T05:16:05;62;52.8;40.8
62981;PMS5003;49075;53.988;27.678;2023-03-31T05:21:06;63.6;53.4;41
62981;PMS5003;49075;53.988;27.678;2023-03-31T05:26:26;62.2;53;39.8
62981;PMS5003;49075;53.988;27.678;2023-03-31T05:31:06;57.8;49.4;37.6
62981;PMS5003;49075;53.988;27.678;2023-03-31T05:35:58;57.4;49.4;37.2
62981;PMS5003;49075;53.988;27.678;2023-03-31T05:40:58;59.2;50.6;38.2
62981;PMS5003;49075;53.988;27.678;2023-03-31T05:45:58;52.2;45.6;34.6
62981;PMS5003;49075;53.988;27.678;2023-03-31T05:51:12;52.8;46.6;34.6
62981;PMS5003;49075;53.988;27.678;2023-03-31T05:56:20;51.8;45.2;34.6
62981;PMS5003;49075;53.988;27.678;2023-03-31T06:01:00;48.2;43;33.2
62981;PMS5003;49075;53.988;27.678;2023-03-31T06:06:20;41.4;39;28.4
62981;PMS5003;49075;53.988;27.678;2023-03-31T06:11:21;36;34;25.3
62981;PMS5003;49075;53.988;27.678;2023-03-31T06:15:58;40.2;38;26.8
62981;PMS5003;49075;53.988;27.678;2023-03-31T06:21:04;36.8;35;24.8
62981;PMS5003;49075;53.988;27.678;2023-03-31T06:26:13;39;36.4;25.4
62981;PMS5003;49075;53.988;27.678;2023-03-31T06:31:19;43.4;38.6;27.6
62981;PMS5003;49075;53.988;27.678;2023-03-31T06:35:58;43.4;39;28
62981;PMS5003;49075;53.988;27.678;2023-03-31T06:41:12;36.2;34.8;26
62981;PMS5003;49075;53.988;27.678;2023-03-31T06:46:04;36.8;35.2;26
62981;PMS5003;49075;53.988;27.678;2023-03-31T06:50:58;42.4;39.4;28.4
62981;PMS5003;49075;53.988;27.678;2023-03-31T06:55:58;36.2;35.2;26.2
62981;PMS5003;49075;53.988;27.678;2023-03-31T07:01:12;45.2;40;29
62981;PMS5003;49075;53.988;27.678;2023-03-31T07:06:12;40.4;37.6;27.6
62981;PMS5003;49075;53.988;27.678;2023-03-31T07:10:58;45.8;42;29.5
62981;PMS5003;49075;53.988;27.678;2023-03-31T07:15:58;40.8;37.4;27
62981;PMS5003;49075;53.988;27.678;2023-03-31T07:20:58;42.2;38.8;28.2
62981;PMS5003;49075;53.988;27.678;2023-03-31T07:26:20;36.6;35.4;27
62981;PMS5003;49075;53.988;27.678;2023-03-31T07:31:26;37.8;35.8;26.2
62981;PMS5003;49075;53.988;27.678;2023-03-31T07:36:14;40;37.4;28.2
62981;PMS5003;49075;53.988;27.678;2023-03-31T07:41:26;36.2;34.6;26.6
62981;PMS5003;49075;53.988;27.678;2023-03-31T07:45:58;44.6;40;28.6
62981;PMS5003;49075;53.988;27.678;2023-03-31T07:50:58;43.6;38.6;27.6
62981;PMS5003;49075;53.988;27.678;2023-03-31T07:56:12;42.8;39.8;29
62981;PMS5003;49075;53.988;27.678;2023-03-31T08:01:26;46.8;40.4;30.2
62981;PMS5003;49075;53.988;27.678;2023-03-31T08:05:58;42.4;39.4;27.8
62981;PMS5003;49075;53.988;27.678;2023-03-31T08:11:06;40.8;38.2;27.6
62981;PMS5003;49075;53.988;27.678;2023-03-31T08:16:12;44;39;29
62981;PMS5003;49075;53.988;27.678;2023-03-31T08:20:58;42.6;39;28.6
62981;PMS5003;49075;53.988;27.678;2023-03-31T08:26:15;41.8;38.8;28.4
62981;PMS5003;49075;53.988;27.678;2023-03-31T08:31:01;44.2;40;29
62981;PMS5003;49075;53.988;27.678;2023-03-31T08:36:07;46.2;41.8;29.4
62981;PMS5003;49075;53.988;27.678;2023-03-31T08:40:58;43.4;39.2;28.2
62981;PMS5003;49075;53.988;27.678;2023-03-31T08:45:58;47.6;41.8;30
62981;PMS5003;49075;53.988;27.678;2023-03-31T08:50:59;48.8;43.2;31.2
62981;PMS5003;49075;53.988;27.678;2023-03-31T08:56:13;45.4;40.8;29.6
62981;PMS5003;49075;53.988;27.678;2023-03-31T09:00:59;43.8;39.6;29.4
62981;PMS5003;49075;53.988;27.678;2023-03-31T09:06:06;44.8;41;30
62981;PMS5003;49075;53.988;27.678;2023-03-31T09:11:13;47.4;41.6;30.2
62981;PMS5003;49075;53.988;27.678;2023-03-31T09:16:07;46.8;41;29.5
62981;PMS5003;49075;53.988;27.678;2023-03-31T09:21:14;48;42.6;30.4
62981;PMS5003;49075;53.988;27.678;2023-03-31T09:26:16;44.4;39.6;28.2
62981;PMS5003;49075;53.988;27.678;2023-03-31T09:31:07;47;41.8;29.8
62981;PMS5003;49075;53.988;27.678;2023-03-31T09:35:58;49.4;42.8;30.6
62981;PMS5003;49075;53.988;27.678;2023-03-31T09:40:58;53.4;45.8;32.8
62981;PMS5003;49075;53.988;27.678;2023-03-31T09:46:42;49.6;43.4;31
62981;PMS5003;49075;53.988;27.678;2023-03-31T09:51:34;48.6;43.4;30.6
62981;PMS5003;49075;53.988;27.678;2023-03-31T09:56:51;46.6;42;30.4
62981;PMS5003;49075;53.988;27.678;2023-03-31T10:00:59;47.4;41.8;29.8
62981;PMS5003;49075;53.988;27.678;2023-03-31T10:06:07;48;42.2;30.8
62981;PMS5003;49075;53.988;27.678;2023-03-31T10:11:06;46.8;41.6;30
62981;PMS5003;49075;53.988;27.678;2023-03-31T10:16:01;50.5;44.3;31.8
62981;PMS5003;49075;53.988;27.678;2023-03-31T10:20:58;46;41.4;29.6
62981;PMS5003;49075;53.988;27.678;2023-03-31T10:25:58;47.4;42.2;30.4
62981;PMS5003;49075;53.988;27.678;2023-03-31T10:31:14;49.6;43.4;30.4
62981;PMS5003;49075;53.988;27.678;2023-03-31T10:35:58;46;42;30.6
62981;PMS5003;49075;53.988;27.678;2023-03-31T10:41:18;46.2;41.8;30.4
62981;PMS5003;49075;53.988;27.678;2023-03-31T10:46:12;47.4;41.6;30.4
62981;PMS5003;49075;53.988;27.678;2023-03-31T10:50:58;49.4;43.2;31.2
62981;PMS5003;49075;53.988;27.678;2023-03-31T10:56:42;50.4;44;31
62981;PMS5003;49075;53.988;27.678;2023-03-31T11:01:16;49.2;44;31.6
62981;PMS5003;49075;53.988;27.678;2023-03-31T11:06:32;50.2;43.6;31
62981;PMS5003;49075;53.988;27.678;2023-03-31T11:11:08;48.2;42.2;30.2
62981;PMS5003;49075;53.988;27.678;2023-03-31T11:16:15;50.5;43.3;30.3
62981;PMS5003;49075;53.988;27.678;2023-03-31T11:21:27;49.8;43.2;31.4
62981;PMS5003;49075;53.988;27.678;2023-03-31T11:26:37;42;38.4;28.8
62981;PMS5003;49075;53.988;27.678;2023-03-31T11:31:16;47.4;42.6;30.2
62981;PMS5003;49075;53.988;27.678;2023-03-31T11:36:12;51.2;44.6;31.4
62981;PMS5003;49075;53.988;27.678;2023-03-31T11:40:58;45.4;40.6;29.6
62981;PMS5003;49075;53.988;27.678;2023-03-31T11:45:59;50.4;44.6;32.2
62981;PMS5003;49075;53.988;27.678;2023-03-31T11:50:58;49.8;43.8;32
62981;PMS5003;49075;53.988;27.678;2023-03-31T11:56:18;46.2;41.2;30.2
62981;PMS5003;49075;53.988;27.678;2023-03-31T12:00:59;47.6;42.2;30
62981;PMS5003;49075;53.988;27.678;2023-03-31T12:06:00;47.4;41.8;30
62981;PMS5003;49075;53.988;27.678;2023-03-31T12:11:15;46.4;41.6;30.4
62981;PMS5003;49075;53.988;27.678;2023-03-31T12:16:13;45;40.4;28.4
62981;PMS5003;49075;53.988;27.678;2023-03-31T12:21:06;47.8;42.5;30.8
62981;PMS5003;49075;53.988;27.678;2023-03-31T12:25:59;45;40.6;29.6
62981;PMS5003;49075;53.988;27.678;2023-03-31T12:31:07;49.8;44;31.4
62981;PMS5003;49075;53.988;27.678;2023-03-31T12:36:10;45.6;41.6;29.8
62981;PMS5003;49075;53.988;27.678;2023-03-31T12:41:27;44.8;40.2;30
62981;PMS5003;49075;53.988;27.678;2023-03-31T12:46:09;53;46;32.6
62981;PMS5003;49075;53.988;27.678;2023-03-31T12:51:23;52.6;46.2;33.2
62981;PMS5003;49075;53.988;27.678;2023-03-31T12:56:20;51.6;45;31.8
62981;PMS5003;49075;53.988;27.678;2023-03-31T13:01:07;51.8;45.4;32
62981;PMS5003;49075;53.988;27.678;2023-03-31T13:05:58;44.4;41;30
62981;PMS5003;49075;53.988;27.678;2023-03-31T13:11:18;40.2;38.4;28.2
62981;PMS5003;49075;53.988;27.678;2023-03-31T13:16:16;42.4;39.8;28.6
62981;PMS5003;49075;53.988;27.678;2023-03-31T13:21:12;46.3;41.3;30.5
62981;PMS5003;49075;53.988;27.678;2023-03-31T13:26:22;47.6;42.4;30.6
62981;PMS5003;49075;53.988;27.678;2023-03-31T13:31:13;44.4;41.2;29.2
62981;PMS5003;49075;53.988;27.678;2023-03-31T13:36:06;43.4;39.6;28.4
62981;PMS5003;49075;53.988;27.678;2023-03-31T13:41:14;46.6;41.8;30.2
62981;PMS5003;49075;53.988;27.678;2023-03-31T13:46:11;44;40.6;29.2
62981;PMS5003;49075;53.988;27.678;2023-03-31T13:51:04;44;40.6;30.4
62981;PMS5003;49075;53.988;27.678;2023-03-31T13:57:09;41.2;39.2;27.8
62981;PMS5003;49075;53.988;27.678;2023-03-31T14:01:39;41.6;39.2;28.8
62981;PMS5003;49075;53.988;27.678;2023-03-31T14:05:58;44.8;40.6;29.2
62981;PMS5003;49075;53.988;27.678;2023-03-31T14:11:22;40.2;38;28.2
62981;PMS5003;49075;53.988;27.678;2023-03-31T14:15:58;37;35;26.2
62981;PMS5003;49075;53.988;27.678;2023-03-31T14:21:28;42.5;39.8;28.5
62981;PMS5003;49075;53.988;27.678;2023-03-31T14:26:25;49.4;42.6;31
62981;PMS5003;49075;53.988;27.678;2023-03-31T14:31:35;46.2;42.2;29.8
62981;PMS5003;49075;53.988;27.678;2023-03-31T14:36:08;47;42;30.4
62981;PMS5003;49075;53.988;27.678;2023-03-31T14:40:58;45;40.8;29.2
62981;PMS5003;49075;53.988;27.678;2023-03-31T14:46:12;41.4;39;28.4
62981;PMS5003;49075;53.988;27.678;2023-03-31T14:51:07;48.6;43.4;30.8
62981;PMS5003;49075;53.988;27.678;2023-03-31T14:55:59;46.2;42.2;29.2
62981;PMS5003;49075;53.988;27.678;2023-03-31T15:01:13;39;38;27.4
62981;PMS5003;49075;53.988;27.678;2023-03-31T15:05:58;40;36.6;28.4
62981;PMS5003;49075;53.988;27.678;2023-03-31T15:10:59;48;42.2;29.8
62981;PMS5003;49075;53.988;27.678;2023-03-31T15:16:39;49.2;43.2;31.2
62981;PMS5003;49075;53.988;27.678;2023-03-31T15:21:17;51.5;45.3;32
62981;PMS5003;49075;53.988;27.678;2023-03-31T15:26:07;47.6;42.4;30
62981;PMS5003;49075;53.988;27.678;2023-03-31T15:31:22;50.8;44;31.2
62981;PMS5003;49075;53.988;27.678;2023-03-31T15:36:18;48;43.4;31.6
62981;PMS5003;49075;53.988;27.678;2023-03-31T15:40:58;37;35.8;25.2
62981;PMS5003;49075;53.988;27.678;2023-03-31T15:46:24;44.6;40.2;28.4
62981;PMS5003;49075;53.988;27.678;2023-03-31T15:50:59;46.8;42.2;29.4
62981;PMS5003;49075;53.988;27.678;2023-03-31T15:56:06;42.2;39;29
62981;PMS5003;49075;53.988;27.678;2023-03-31T16:01:13;43.6;40.6;28.8
62981;PMS5003;49075;53.988;27.678;2023-03-31T16:06:06;44.2;39;28.2
62981;PMS5003;49075;53.988;27.678;2023-03-31T16:11:13;46.2;41;29.4
62981;PMS5003;49075;53.988;27.678;2023-03-31T16:16:05;42.2;38.8;28
62981;PMS5003;49075;53.988;27.678;2023-03-31T16:21:06;44.3;40.8;28.5
62981;PMS5003;49075;53.988;27.678;2023-03-31T16:25:58;44;39.4;28.2
62981;PMS5003;49075;53.988;27.678;2023-03-31T16:31:28;41.2;38.8;27.6
62981;PMS5003;49075;53.988;27.678;2023-03-31T16:36:01;40.4;37;28
62981;PMS5003;49075;53.988;27.678;2023-03-31T16:40:58;41.4;37.8;27.4
62981;PMS5003;49075;53.988;27.678;2023-03-31T16:45:59;41;39;28.2
62981;PMS5003;49075;53.988;27.678;2023-03-31T16:51:18;37.8;35.8;25.4
62981;PMS5003;49075;53.988;27.678;2023-03-31T16:55:58;43.6;40.2;28.4
62981;PMS5003;49075;53.988;27.678;2023-03-31T17:01:12;44.8;40.4;28.6
62981;PMS5003;49075;53.988;27.678;2023-03-31T17:06:02;40.8;38.2;27.6
62981;PMS5003;49075;53.988;27.678;2023-03-31T17:11:07;47.8;42.2;29.4
62981;PMS5003;49075;53.988;27.678;2023-03-31T17:16:12;44.6;41.4;29.4
62981;PMS5003;49075;53.988;27.678;2023-03-31T17:21:02;47.2;41.8;29.4
62981;PMS5003;49075;53.988;27.678;2023-03-31T17:25:58;46.5;41.5;28.3
62981;PMS5003;49075;53.988;27.678;2023-03-31T17:30:58;51.6;45.2;31.8
62981;PMS5003;49075;53.988;27.678;2023-03-31T17:36:06;49;42.4;29.4
62981;PMS5003;49075;53.988;27.678;2023-03-31T17:41:12;55.2;46.6;32.6
62981;PMS5003;49075;53.988;27.678;2023-03-31T17:45:59;48.6;43.8;29.8
62981;PMS5003;49075;53.988;27.678;2023-03-31T17:51:01;50.2;43.8;29
62981;PMS5003;49075;53.988;27.678;2023-03-31T17:55:58;56.6;48.6;33.2
62981;PMS5003;49075;53.988;27.678;2023-03-31T18:01:12;56.4;47.4;32.6
62981;PMS5003;49075;53.988;27.678;2023-03-31T18:06:01;48.8;43.4;29.6
62981;PMS5003;49075;53.988;27.678;2023-03-31T18:11:22;46.6;42;28.8
62981;PMS5003;49075;53.988;27.678;2023-03-31T18:15:58;48.2;42.8;29.6
62981;PMS5003;49075;53.988;27.678;2023-03-31T18:21:01;46.6;41.8;28.8
62981;PMS5003;49075;53.988;27.678;2023-03-31T18:25:58;50;43;29.8
62981;PMS5003;49075;53.988;27.678;2023-03-31T18:31:00;53.8;46.8;31.8
62981;PMS5003;49075;53.988;27.678;2023-03-31T18:36:06;50;43.8;31.2
62981;PMS5003;49075;53.988;27.678;2023-03-31T18:41:26;52.5;44.8;29.8
62981;PMS5003;49075;53.988;27.678;2023-03-31T18:46:12;53.4;45.6;30.8
62981;PMS5003;49075;53.988;27.678;2023-03-31T18:50:58;51;44.4;31
62981;PMS5003;49075;53.988;27.678;2023-03-31T18:55:58;45.6;41;28.6
62981;PMS5003;49075;53.988;27.678;2023-03-31T19:01:20;52.5;44.5;30.8
62981;PMS5003;49075;53.988;27.678;2023-03-31T19:05:59;46.8;42;28.8
62981;PMS5003;49075;53.988;27.678;2023-03-31T19:11:02;43.4;39.6;28
62981;PMS5003;49075;53.988;27.678;2023-03-31T19:16:12;47.4;42;28.8
62981;PMS5003;49075;53.988;27.678;2023-03-31T19:20:59;43;39.2;27.4
62981;PMS5003;49075;53.988;27.678;2023-03-31T19:26:20;48;42.8;29.8
62981;PMS5003;49075;53.988;27.678;2023-03-31T19:31:10;51.8;45.2;31.2
62981;PMS5003;49075;53.988;27.678;2023-03-31T19:35:58;48;42.6;29
62981;PMS5003;49075;53.988;27.678;2023-03-31T19:40:58;51.4;45.2;31.2
62981;PMS5003;49075;53.988;27.678;2023-03-31T19:46:12;50.4;44.4;31.2
62981;PMS5003;49075;53.988;27.678;2023-03-31T19:51:06;50;44.6;31.2
62981;PMS5003;49075;53.988;27.678;2023-03-31T19:56:13;46;41.4;29
62981;PMS5003;49075;53.988;27.678;2023-03-31T20:00:58;52;45.5;32.5
62981;PMS5003;49075;53.988;27.678;2023-03-31T20:06:27;50.8;43.8;30.2
62981;PMS5003;49075;53.988;27.678;2023-03-31T20:11:18;55;47.2;32.8
62981;PMS5003;49075;53.988;27.678;2023-03-31T20:16:15;51.6;45;31.2
62981;PMS5003;49075;53.988;27.678;2023-03-31T20:21:29;51.4;43.8;31.4
62981;PMS5003;49075;53.988;27.678;2023-03-31T20:25:58;54.6;46.4;32
62981;PMS5003;49075;53.988;27.678;2023-03-31T20:30:58;52.4;45.4;31.6
62981;PMS5003;49075;53.988;27.678;2023-03-31T20:36:13;47.6;42.4;30.2
62981;PMS5003;49075;53.988;27.678;2023-03-31T20:41:06;50.4;43.4;30
62981;PMS5003;49075;53.988;27.678;2023-03-31T20:45:58;52.4;45.8;32.4
62981;PMS5003;49075;53.988;27.678;2023-03-31T20:51:05;50.4;44.6;30.4
62981;PMS5003;49075;53.988;27.678;2023-03-31T20:56:40;51.2;44.4;31.8
62981;PMS5003;49075;53.988;27.678;2023-03-31T21:00:58;50;43.5;30.5
62981;PMS5003;49075;53.988;27.678;2023-03-31T21:06:08;56;47.4;32.6
62981;PMS5003;49075;53.988;27.678;2023-03-31T21:10:59;54.8;46.2;32.6
62981;PMS5003;49075;53.988;27.678;2023-03-31T21:16:04;49;43.4;30.6
62981;PMS5003;49075;53.988;27.678;2023-03-31T21:20:59;53;45.6;32.2
62981;PMS5003;49075;53.988;27.678;2023-03-31T21:26:13;52.6;44.6;31.6
62981;PMS5003;49075;53.988;27.678;2023-03-31T21:31:07;48.6;42.4;29.2
62981;PMS5003;49075;53.988;27.678;2023-03-31T21:35:58;46.6;41.4;30
62981;PMS5003;49075;53.988;27.678;2023-03-31T21:41:02;49.8;43.4;30.4
62981;PMS5003;49075;53.988;27.678;2023-03-31T21:46:14;47.6;42.6;29.4
62981;PMS5003;49075;53.988;27.678;2023-03-31T21:50:58;49.8;42.8;31
62981;PMS5003;49075;53.988;27.678;2023-03-31T21:56:06;47.8;42.2;29.4
62981;PMS5003;49075;53.988;27.678;2023-03-31T22:01:12;53.8;45.5;32
62981;PMS5003;49075;53.988;27.678;2023-03-31T22:05:59;51.2;44.8;30.4
62981;PMS5003;49075;53.988;27.678;2023-03-31T22:11:14;54.4;45.8;31
62981;PMS5003;49075;53.988;27.678;2023-03-31T22:16:13;51.6;44.2;30.6
62981;PMS5003;49075;53.988;27.678;2023-03-31T22:21:15;51.4;44;31.2
62981;PMS5003;49075;53.988;27.678;2023-03-31T22:26:27;56.6;48.2;32.6
62981;PMS5003;49075;53.988;27.678;2023-03-31T22:31:04;55.8;47.8;33.6
62981;PMS5003;49075;53.988;27.678;2023-03-31T22:35:58;55.8;47.4;32.8
62981;PMS5003;49075;53.988;27.678;2023-03-31T22:41:04;54.8;46.8;32.2
62981;PMS5003;49075;53.988;27.678;2023-03-31T22:46:06;52;44.4;31.4
62981;PMS5003;49075;53.988;27.678;2023-03-31T22:51:18;49.2;42.8;30.4
62981;PMS5003;49075;53.988;27.678;2023-03-31T22:56:05;34.4;33.2;23.8
62981;PMS5003;49075;53.988;27.678;2023-03-31T23:01:15;43.8;40.2;28.6
62981;PMS5003;49075;53.988;27.678;2023-03-31T23:06:26;54.3;47;32.8
62981;PMS5003;49075;53.988;27.678;2023-03-31T23:11:22;48;42;28.8
62981;PMS5003;49075;53.988;27.678;2023-03-31T23:16:14;54;46;31.4
62981;PMS5003;49075;53.988;27.678;2023-03-31T23:20:58;46.6;41;28.6
62981;PMS5003;49075;53.988;27.678;2023-03-31T23:26:14;44.4;39.8;28.4
62981;PMS5003;49075;53.988;27.678;2023-03-31T23:31:12;47.6;42;30
62981;PMS5003;49075;53.988;27.678;2023-03-31T23:36:25;48.8;43.2;30.4
62981;PMS5003;49075;53.988;27.678;2023-03-31T23:40:59;52.2;44.4;30.2
62981;PMS5003;49075;53.988;27.678;2023-03-31T23:45:58;52.6;45.4;30.8
62981;PMS5003;49075;53.988;27.678;2023-03-31T23:50:58;46.2;40.8;29.2
62981;PMS5003;49075;53.988;27.678;2023-03-31T23:56:13;52;44.6;31.2
